Alanson, Michigan
Current Conditions -  °F | °C
As of 1:54 PM on Monday 20 Oct 2014 (Local Time) from KMGN Reporting Station
Overcast Overcast  
Wind Chill: 46°   Ceiling: 1000
Heat Index: 49°   Visibility: 10mi
Dew Point: 45°   Wind: 8mph
Humidity: 84%   Direction: 280°W
Pressure: 29.79"   Gusts: NA
Location:  45.44°N, 84.79°W
Report Text: KMGN 201754Z AUTO 28007KT 10SM OVC010 09/07 A2979 RMK AO2 T00960070
Loading
Personal Weather Stations






























Interactive Weather Map
Tropical Storm Tracking
New forecast layout! Learn more

10-Day Weather Forecast

Advertisements
Track Severe Weather on mobile